Ester, AK (99725)

12:27 PM AKDT on September 03, 2015 (GMT -0800)
Skyflight Avenue | | Change Station
CLOSE
Current Station
Personal Weather Station
Location: Fairbanks, AK
Elevation: 1110 ft
Nearby Weather Stations

Elev 1110 ft 64.93 °N, 147.89 °W | Updated 57 seconds ago

Mostly Cloudy
Mostly Cloudy
61.2 °F
Feels Like 61.2 °F
N
2.0
Wind Variable Wind from NE
Gusts 8.0 mph

Today
High -- | Low -- °F
--% Chance of Precip.
Yesterday
High -- | Low -- °F
Precip. -- in
6:38 AM 9:04 PM
Waning Gibbous, 67% visible
Pressure 29.92 in
Visibility 10.0 miles
Clouds Few 15000 ft
Mostly Cloudy 21000 ft
Dew Point 40 °F
Humidity 46%
Rainfall 0.00 in
Snow Depth Not available.
UV 2 out of 12
Pollen Not available.
Air Quality Not available.
Flu Activity Not available.
METAR PAFA 031953Z 06009KT 10SM FEW150 BKN210 16/03 A2990 RMK AO2 SLP130 T01610033
Pressure 29.92 in
Visibility 10.0 miles
Clouds Few 15000 ft
Mostly Cloudy 21000 ft
Dew Point 40 °F
Humidity 46%
Rainfall 0.00 in
Snow Depth Not available.
UV 2 out of 12
Pollen Not available.
Air Quality Not available.
Flu Activity Not available.
METAR PAFA 031953Z 06009KT 10SM FEW150 BKN210 16/03 A2990 RMK AO2 SLP130 T01610033

10-Day Weather Forecast

×

Almanac

Astronomy

Sep. 03, 2015 Rise Set
Actual Time
Civil Twilight
Nautical Twilight
Astronomical Twilight
Moon
Length of Visible Light
Length of Day
Tomorrow will be .
, % of the Moon is Illuminated

Today's Extremes

State Highs State Lows

Community

WunderPhotos

Upload Photos

1,852,029 photos uploaded!

WunderBlogs® & News

Nearby

Air Quality

  Air Quality AQ Index Pollutant
Not available.

Snow Depth

Station Depth Elevation

Earthquake Activity

City Distance Mag. Time & Date
Minimum magnitude displayed is 2.5.

Coastal Water Temperatures

Place Temperature

Stations

Nearby Weather Stations

Station Location Temp. Windchill Dew Point Humidity Wind Precip. Elev Updated Type